Time;durP1;ratioP1;P1;durP2;ratioP2;P2;SDS_P1;SDS_P2;PMS_P1;PMS_P2;Temp;Humidity;BMP_temperature;BMP_pressure;BME280_temperature;BME280_humidity;BME280_pressure;Samples;Min_cycle;Max_cycle;Signal;HPM_P1;HPM_P2
2021/10/10 00:00:57;;;;;;;9.43;5.65;;;7.80;99.90;;;;;;12480320;28;20045;-84
2021/10/10 00:06:59;;;;;;;12.07;6.15;;;7.80;99.90;;;;;;12489918;28;20176;-84
2021/10/10 00:13:02;;;;;;;11.13;5.95;;;7.70;99.90;;;;;;12472746;28;20524;-85
2021/10/10 00:19:04;;;;;;;13.60;6.55;;;7.70;99.90;;;;;;12481011;28;20498;-84
2021/10/10 00:25:07;;;;;;;12.48;5.25;;;7.80;99.90;;;;;;12477975;28;20107;-84
2021/10/10 00:31:09;;;;;;;9.05;5.38;;;7.80;99.90;;;;;;12489249;28;20045;-84
2021/10/10 00:37:11;;;;;;;12.35;6.57;;;7.80;99.90;;;;;;12473297;28;20081;-83
2021/10/10 00:43:13;;;;;;;9.82;5.53;;;7.70;99.90;;;;;;12465915;28;20071;-84
2021/10/10 00:49:15;;;;;;;10.85;5.45;;;7.70;99.90;;;;;;12454350;28;20059;-83
2021/10/10 00:55:20;;;;;;;11.50;6.20;;;7.50;99.90;;;;;;12471157;28;20127;-84
2021/10/10 01:01:22;;;;;;;12.20;5.65;;;7.50;99.90;;;;;;12480049;28;20074;-84
2021/10/10 01:07:25;;;;;;;9.30;5.53;;;7.40;99.90;;;;;;12470765;28;20508;-84
2021/10/10 01:13:27;;;;;;;9.32;5.22;;;7.40;99.90;;;;;;12487898;28;21068;-84
2021/10/10 01:19:33;;;;;;;8.32;5.22;;;7.30;99.90;;;;;;12486584;28;20550;-84
2021/10/10 01:25:35;;;;;;;10.18;5.63;;;7.50;99.90;;;;;;12478681;28;20057;-84
2021/10/10 01:31:37;;;;;;;10.50;5.35;;;7.50;99.90;;;;;;12498903;28;20124;-84
2021/10/10 01:37:39;;;;;;;9.68;5.97;;;7.50;99.90;;;;;;12476237;28;20041;-83
2021/10/10 01:43:41;;;;;;;11.80;5.60;;;7.50;99.90;;;;;;12481199;28;20572;-84
2021/10/10 01:49:43;;;;;;;11.70;5.60;;;7.50;99.90;;;;;;12482160;28;20045;-84
2021/10/10 01:55:45;;;;;;;10.40;5.30;;;7.40;99.90;;;;;;12489507;28;20049;-83
2021/10/10 02:01:46;;;;;;;9.15;4.90;;;7.20;99.90;;;;;;12473884;28;20045;-84
2021/10/10 02:07:49;;;;;;;11.18;5.70;;;7.00;99.90;;;;;;12473980;28;20497;-84
2021/10/10 02:13:50;;;;;;;8.60;5.38;;;6.90;99.90;;;;;;12475783;28;20045;-84
2021/10/10 02:19:52;;;;;;;10.25;6.03;;;6.80;99.90;;;;;;12480174;28;20053;-84
2021/10/10 02:25:54;;;;;;;9.25;6.18;;;6.80;99.90;;;;;;12467572;28;20084;-84
2021/10/10 02:31:56;;;;;;;10.38;5.40;;;6.80;99.90;;;;;;12465915;28;20045;-84
2021/10/10 02:37:58;;;;;;;11.70;5.75;;;6.80;99.90;;;;;;12479114;28;20091;-84
2021/10/10 02:44:00;;;;;;;12.73;5.93;;;6.70;99.90;;;;;;12485441;28;20064;-84
2021/10/10 02:50:03;;;;;;;8.70;5.32;;;6.70;99.90;;;;;;12475012;28;20083;-83
2021/10/10 02:56:06;;;;;;;11.73;5.30;;;6.60;99.90;;;;;;12478552;28;20130;-83
2021/10/10 03:02:08;;;;;;;10.82;5.65;;;6.50;99.90;;;;;;12477290;28;20064;-84
2021/10/10 03:08:09;;;;;;;11.30;5.65;;;6.30;99.90;;;;;;12492747;28;21293;-84
2021/10/10 03:14:11;;;;;;;9.30;5.30;;;6.50;99.90;;;;;;12472667;28;20057;-84
2021/10/10 03:20:14;;;;;;;9.57;6.00;;;6.40;99.90;;;;;;12469447;28;20471;-84
2021/10/10 03:26:16;;;;;;;7.88;5.18;;;6.40;99.90;;;;;;12483152;28;20069;-84
2021/10/10 03:32:18;;;;;;;12.60;5.45;;;6.50;99.90;;;;;;12490037;28;20043;-84
2021/10/10 03:38:19;;;;;;;9.32;5.40;;;6.40;99.90;;;;;;12467413;28;20053;-84
2021/10/10 03:44:21;;;;;;;12.07;6.20;;;6.40;99.90;;;;;;12485114;28;20080;-84
2021/10/10 03:50:23;;;;;;;9.52;5.38;;;6.30;99.90;;;;;;12468211;28;20047;-84
2021/10/10 03:56:25;;;;;;;12.07;6.47;;;6.40;99.90;;;;;;12474829;28;20061;-84
2021/10/10 04:02:27;;;;;;;12.02;6.00;;;6.30;99.90;;;;;;12479028;28;20053;-83
2021/10/10 04:08:29;;;;;;;9.90;5.55;;;6.40;99.90;;;;;;12478877;28;20049;-84
2021/10/10 04:14:31;;;;;;;10.98;6.03;;;6.40;99.90;;;;;;12479638;28;20106;-84
2021/10/10 04:20:33;;;;;;;9.65;5.63;;;6.30;99.90;;;;;;12483592;28;20052;-84
2021/10/10 04:26:35;;;;;;;8.75;5.53;;;6.20;99.90;;;;;;12478041;28;20140;-84
2021/10/10 04:32:37;;;;;;;9.68;5.57;;;6.10;99.90;;;;;;12471623;28;20096;-84
2021/10/10 04:38:38;;;;;;;11.05;6.30;;;6.10;99.90;;;;;;12469929;28;20094;-84
2021/10/10 04:44:40;;;;;;;9.82;5.38;;;6.00;99.90;;;;;;12482899;28;20049;-84
2021/10/10 04:50:42;;;;;;;9.00;5.25;;;5.90;99.90;;;;;;12485256;28;20135;-84
2021/10/10 04:56:44;;;;;;;9.23;5.43;;;5.90;99.90;;;;;;12499785;28;20108;-84
2021/10/10 05:02:46;;;;;;;10.98;6.03;;;5.70;99.90;;;;;;12490287;28;20060;-84
2021/10/10 05:08:48;;;;;;;10.63;6.15;;;5.50;99.90;;;;;;12482900;28;20069;-82
2021/10/10 05:14:49;;;;;;;11.32;5.47;;;5.70;99.90;;;;;;12481812;28;20045;-84
2021/10/10 05:20:51;;;;;;;13.57;6.65;;;5.70;99.90;;;;;;12487672;28;20049;-83
2021/10/10 05:26:53;;;;;;;11.57;6.30;;;5.70;99.90;;;;;;12480795;28;20131;-84
2021/10/10 05:32:55;;;;;;;8.98;5.55;;;5.70;99.90;;;;;;12504435;28;20159;-83
2021/10/10 05:38:58;;;;;;;10.48;6.03;;;5.60;99.90;;;;;;12493245;28;20098;-84
2021/10/10 05:45:00;;;;;;;10.85;6.38;;;5.60;99.90;;;;;;12503025;28;20049;-84
2021/10/10 05:51:02;;;;;;;11.20;6.47;;;5.60;99.90;;;;;;12484715;28;20084;-84
2021/10/10 05:57:10;;;;;;;11.88;5.75;;;5.70;99.90;;;;;;12498277;28;20140;-83
2021/10/10 06:03:12;;;;;;;10.60;6.20;;;5.70;99.90;;;;;;12490926;28;20087;-84
2021/10/10 06:09:14;;;;;;;11.57;6.70;;;5.60;99.90;;;;;;12487654;28;20459;-84
2021/10/10 06:15:18;;;;;;;12.18;6.20;;;5.70;99.90;;;;;;12482719;28;20273;-84
2021/10/10 06:21:19;;;;;;;10.63;6.25;;;5.70;99.90;;;;;;12502942;28;20053;-84
2021/10/10 06:27:21;;;;;;;11.85;6.95;;;5.70;99.90;;;;;;12486607;28;20049;-83
2021/10/10 06:33:23;;;;;;;11.63;6.88;;;5.80;99.90;;;;;;12496222;28;20413;-83
2021/10/10 06:39:25;;;;;;;11.25;6.68;;;5.90;99.90;;;;;;12486064;28;20139;-84
2021/10/10 06:45:27;;;;;;;12.15;6.97;;;6.00;99.90;;;;;;12489341;28;20044;-84
2021/10/10 06:51:28;;;;;;;13.02;6.78;;;6.10;99.90;;;;;;12495360;28;20114;-83
2021/10/10 06:57:32;;;;;;;12.90;7.70;;;6.20;99.90;;;;;;12484813;28;20103;-83
2021/10/10 07:03:34;;;;;;;15.52;7.50;;;6.30;99.90;;;;;;12471580;28;20053;-83
2021/10/10 07:09:36;;;;;;;14.35;7.55;;;6.30;99.90;;;;;;12478258;28;20333;-83
2021/10/10 07:15:38;;;;;;;13.02;7.00;;;6.50;99.90;;;;;;12486080;28;20110;-84
2021/10/10 07:21:55;;;;;;;11.25;7.10;;;6.60;99.90;;;;;;12490068;28;20069;-84
2021/10/10 07:27:57;;;;;;;13.50;7.32;;;6.80;99.90;;;;;;12478065;28;20057;-84
2021/10/10 07:33:58;;;;;;;10.50;7.10;;;6.90;99.90;;;;;;12481447;28;20091;-84
2021/10/10 07:40:02;;;;;;;11.75;7.00;;;7.00;99.90;;;;;;12489978;28;20040;-83
2021/10/10 07:46:10;;;;;;;15.97;7.83;;;7.10;99.90;;;;;;12478718;28;20813;-84
2021/10/10 07:52:12;;;;;;;13.18;7.85;;;7.10;99.90;;;;;;12484147;28;20049;-83
2021/10/10 07:58:14;;;;;;;12.70;8.00;;;7.30;99.90;;;;;;12481967;28;20138;-83
2021/10/10 08:04:16;;;;;;;9.63;6.90;;;7.40;99.90;;;;;;12490975;28;20719;-84
2021/10/10 08:10:18;;;;;;;12.48;8.05;;;7.60;99.90;;;;;;12486885;28;20090;-84
2021/10/10 08:16:20;;;;;;;12.18;8.23;;;7.60;99.90;;;;;;12495558;28;20049;-85
2021/10/10 08:22:23;;;;;;;10.90;7.57;;;7.50;99.90;;;;;;12478752;28;20158;-84
2021/10/10 08:28:26;;;;;;;12.23;7.63;;;7.70;99.90;;;;;;12483040;28;21023;-85
2021/10/10 08:34:28;;;;;;;10.13;7.35;;;7.80;99.90;;;;;;12477205;28;20044;-84
2021/10/10 08:40:30;;;;;;;12.13;7.68;;;7.90;99.90;;;;;;12472269;28;20048;-84
2021/10/10 08:46:35;;;;;;;10.00;7.47;;;8.10;99.90;;;;;;12473683;28;20045;-85
2021/10/10 08:52:40;;;;;;;13.60;8.25;;;8.40;99.90;;;;;;12476374;28;20048;-84
2021/10/10 08:58:45;;;;;;;12.45;8.23;;;8.50;99.90;;;;;;12476488;28;20790;-85
2021/10/10 09:04:46;;;;;;;;;;;8.70;99.90;;;;;;12476442;28;20049;-84
2021/10/10 09:11:01;;;;;;;11.48;8.00;;;8.90;99.90;;;;;;12481012;28;19924;-86
2021/10/10 09:17:16;;;;;;;;;;;9.10;99.90;;;;;;12467283;28;20053;-85
2021/10/10 09:23:21;;;;;;;15.15;7.75;;;9.30;99.90;;;;;;12478338;28;19950;-85
2021/10/10 09:29:35;;;;;;;16.40;8.68;;;9.40;99.90;;;;;;12486124;28;20400;-85
2021/10/10 09:35:37;;;;;;;12.33;7.40;;;9.50;99.90;;;;;;12485749;28;20969;-85
2021/10/10 09:41:50;;;;;;;11.82;8.05;;;9.50;99.90;;;;;;12488415;28;20627;-84
2021/10/10 09:47:58;;;;;;;14.60;8.73;;;9.60;99.90;;;;;;12480755;28;20048;-85
2021/10/10 09:54:05;;;;;;;13.15;8.40;;;9.60;99.90;;;;;;12485714;28;20072;-85
2021/10/10 10:00:21;;;;;;;10.18;7.50;;;9.80;99.90;;;;;;12486821;28;20750;-85
2021/10/10 10:06:24;;;;;;;12.80;8.57;;;10.10;99.90;;;;;;12485815;28;20041;-85
2021/10/10 10:12:26;;;;;;;10.15;7.45;;;10.50;99.90;;;;;;12486348;28;20127;-84
2021/10/10 10:18:29;;;;;;;11.18;8.25;;;10.90;99.90;;;;;;12478490;28;20103;-85
2021/10/10 10:24:33;;;;;;;15.00;8.07;;;11.20;99.90;;;;;;12481877;28;20065;-85
2021/10/10 10:30:36;;;;;;;14.32;7.57;;;11.70;99.90;;;;;;12476982;28;20053;-85
2021/10/10 10:36:54;;;;;;;10.23;6.95;;;12.20;99.90;;;;;;12485713;28;20507;-86
2021/10/10 10:42:58;;;;;;;10.90;7.53;;;12.70;99.90;;;;;;12484507;28;20045;-85
2021/10/10 10:49:01;;;;;;;9.10;6.57;;;13.20;99.90;;;;;;12480668;28;20044;-85
2021/10/10 10:55:16;;;;;;;11.23;7.03;;;13.30;99.90;;;;;;12483102;28;20044;-86
2021/10/10 11:01:18;;;;;;;12.32;7.55;;;13.60;99.90;;;;;;12485385;28;20056;-86
2021/10/10 11:07:32;;;;;;;10.48;7.28;;;13.70;99.90;;;;;;12477028;28;20074;-85
2021/10/10 11:13:34;;;;;;;12.63;6.97;;;13.90;99.90;;;;;;12475034;28;20041;-86
2021/10/10 11:19:36;;;;;;;15.02;7.47;;;13.70;99.90;;;;;;12487246;28;20055;-86
2021/10/10 11:25:37;;;;;;;9.75;6.43;;;13.60;99.90;;;;;;12491152;28;20091;-86
2021/10/10 11:31:41;;;;;;;10.77;6.90;;;13.70;99.90;;;;;;12480366;28;20100;-85
2021/10/10 11:37:42;;;;;;;10.38;6.80;;;13.70;99.90;;;;;;12485777;28;20045;-86
2021/10/10 11:44:02;;;;;;;10.75;6.50;;;13.50;99.90;;;;;;12476199;28;20646;-86
2021/10/10 11:50:05;;;;;;;12.60;7.00;;;13.40;99.90;;;;;;12486547;28;20045;-86
2021/10/10 11:56:07;;;;;;;10.98;6.38;;;13.30;99.90;;;;;;12484897;28;20126;-85
2021/10/10 12:02:09;;;;;;;10.88;6.53;;;13.40;99.90;;;;;;12490227;28;20041;-86
2021/10/10 12:08:19;;;;;;;12.93;6.47;;;13.40;99.90;;;;;;12473743;28;20536;-86
2021/10/10 12:14:20;;;;;;;9.32;5.72;;;13.80;99.90;;;;;;12477456;28;20140;-86
2021/10/10 12:20:26;;;;;;;9.45;6.03;;;14.60;99.90;;;;;;12468007;28;20052;-85
2021/10/10 12:26:29;;;;;;;13.23;6.50;;;15.00;99.90;;;;;;12476090;28;20062;-86
2021/10/10 12:32:32;;;;;;;9.70;6.53;;;15.30;99.90;;;;;;12472689;28;20145;-86
2021/10/10 12:38:41;;;;;;;10.57;6.07;;;15.50;99.90;;;;;;12474694;28;20852;-85
2021/10/10 12:45:06;;;;;;;12.13;6.13;;;15.60;99.90;;;;;;12480909;28;20128;-87
2021/10/10 12:51:16;;;;;;;12.82;6.07;;;15.70;99.90;;;;;;12478100;28;20130;-86
2021/10/10 12:57:20;;;;;;;11.70;6.28;;;15.90;99.90;;;;;;12479463;28;20475;-86
2021/10/10 13:03:22;;;;;;;9.90;6.20;;;15.80;99.90;;;;;;12489523;28;20053;-87
2021/10/10 13:09:25;;;;;;;11.00;6.60;;;16.00;99.90;;;;;;12482104;28;20056;-86
2021/10/10 13:15:27;;;;;;;13.38;6.93;;;15.90;99.90;;;;;;12482194;28;20053;-85
2021/10/10 13:21:30;;;;;;;11.27;6.78;;;15.90;99.90;;;;;;12486081;28;20061;-87
2021/10/10 13:27:32;;;;;;;12.70;6.80;;;15.70;99.90;;;;;;12482583;28;20041;-86
2021/10/10 13:33:36;;;;;;;15.30;6.97;;;15.80;99.90;;;;;;12492902;28;20045;-86
2021/10/10 13:39:39;;;;;;;10.68;5.78;;;15.70;99.90;;;;;;12485142;28;20144;-85
2021/10/10 13:45:41;;;;;;;11.07;7.17;;;15.60;99.90;;;;;;12488060;28;20045;-86
2021/10/10 13:51:43;;;;;;;11.30;6.43;;;15.50;99.90;;;;;;12480450;28;20045;-87
2021/10/10 13:57:45;;;;;;;12.60;5.95;;;15.40;99.90;;;;;;12492006;28;20708;-86
2021/10/10 14:03:46;;;;;;;9.57;6.28;;;15.20;99.90;;;;;;12481815;28;20049;-86
2021/10/10 14:09:48;;;;;;;12.88;6.15;;;15.10;99.90;;;;;;12483128;28;20048;-86
2021/10/10 14:15:52;;;;;;;19.65;7.97;;;14.90;99.90;;;;;;12482305;28;20500;-86
2021/10/10 14:21:53;;;;;;;9.80;5.87;;;14.80;99.90;;;;;;12479618;28;20447;-87
2021/10/10 14:27:58;;;;;;;9.98;5.97;;;14.70;99.90;;;;;;12482956;28;20045;-86
2021/10/10 14:33:59;;;;;;;10.15;6.32;;;14.60;99.90;;;;;;12477542;28;20041;-86
2021/10/10 14:40:05;;;;;;;10.32;6.38;;;14.60;99.90;;;;;;12484369;28;20486;-87
2021/10/10 14:46:09;;;;;;;13.75;7.35;;;14.50;99.90;;;;;;12489690;28;20045;-87
2021/10/10 14:52:11;;;;;;;;;;;14.40;99.90;;;;;;12479240;28;20103;-86
2021/10/10 14:58:19;;;;;;;9.93;6.78;;;14.30;99.90;;;;;;12480071;28;20060;-87
2021/10/10 15:04:21;;;;;;;11.90;6.88;;;14.30;99.90;;;;;;12493798;28;21327;-87
2021/10/10 15:10:35;;;;;;;13.05;7.57;;;14.30;99.90;;;;;;12480643;28;20072;-85
2021/10/10 15:16:36;;;;;;;12.27;6.95;;;14.30;99.90;;;;;;12485258;28;20045;-86
2021/10/10 15:22:39;;;;;;;11.27;7.40;;;14.30;99.90;;;;;;12474718;28;20052;-86
2021/10/10 15:28:41;;;;;;;13.15;6.90;;;14.40;99.90;;;;;;12476220;28;20059;-87
2021/10/10 15:34:43;;;;;;;12.43;6.75;;;14.30;99.90;;;;;;12480178;28;20132;-86
2021/10/10 15:40:45;;;;;;;11.70;6.32;;;14.20;99.90;;;;;;12481185;28;20102;-87
2021/10/10 15:46:47;;;;;;;11.82;7.63;;;14.20;99.90;;;;;;12486994;28;20098;-86
2021/10/10 15:52:51;;;;;;;10.98;6.32;;;14.10;99.90;;;;;;12494891;28;20045;-85
2021/10/10 15:58:53;;;;;;;11.55;6.40;;;13.90;99.90;;;;;;12494209;28;20075;-87
2021/10/10 16:04:55;;;;;;;14.60;7.45;;;13.80;99.90;;;;;;12473498;28;20038;-86
2021/10/10 16:11:07;;;;;;;10.43;6.65;;;13.60;99.90;;;;;;12465090;28;20045;-86
2021/10/10 16:17:09;;;;;;;12.40;7.07;;;13.40;99.90;;;;;;12467836;28;20048;-86
2021/10/10 16:23:11;;;;;;;9.60;6.55;;;13.30;99.90;;;;;;12471746;28;20056;-86
2021/10/10 16:29:17;;;;;;;13.07;7.00;;;13.10;99.90;;;;;;12480429;28;20045;-85
2021/10/10 16:41:57;;;;;;;14.07;7.57;;;12.60;99.90;;;;;;12471196;28;20041;-86
2021/10/10 16:48:00;;;;;;;17.75;7.43;;;12.40;99.90;;;;;;12476861;28;20057;-85
2021/10/10 16:54:01;;;;;;;14.48;7.53;;;12.20;99.90;;;;;;12489694;28;20579;-86
2021/10/10 17:00:04;;;;;;;11.77;7.70;;;12.00;99.90;;;;;;12486477;28;20041;-86
2021/10/10 17:06:06;;;;;;;13.20;7.50;;;11.80;99.90;;;;;;12477779;28;20050;-85
2021/10/10 17:12:08;;;;;;;15.85;7.80;;;11.70;99.90;;;;;;12480048;28;20146;-85
2021/10/10 17:18:09;;;;;;;15.05;7.70;;;11.60;99.90;;;;;;12479721;28;20049;-85
2021/10/10 17:24:11;;;;;;;11.98;7.78;;;11.50;99.90;;;;;;12480232;28;20111;-86
2021/10/10 17:30:13;;;;;;;10.73;7.30;;;11.40;99.90;;;;;;12481684;28;20057;-86
2021/10/10 17:36:15;;;;;;;15.10;7.60;;;11.20;99.90;;;;;;12470098;28;20102;-85
2021/10/10 17:42:17;;;;;;;13.50;8.02;;;11.20;99.90;;;;;;12483367;28;20041;-85
2021/10/10 17:48:19;;;;;;;11.73;7.80;;;11.30;99.90;;;;;;12480656;28;20870;-85
2021/10/10 17:54:21;;;;;;;14.40;8.35;;;11.10;99.90;;;;;;12485008;28;20052;-85
2021/10/10 18:00:43;;;;;;;14.18;7.65;;;11.10;99.90;;;;;;12488034;28;20547;-85
2021/10/10 18:13:16;;;;;;;13.10;7.53;;;11.30;99.90;;;;;;12485981;28;20048;-84
2021/10/10 18:19:19;;;;;;;13.82;8.10;;;11.30;99.90;;;;;;12483949;28;20053;-85
2021/10/10 18:25:21;;;;;;;13.68;9.15;;;11.20;99.90;;;;;;12488905;28;20072;-85
2021/10/10 18:31:23;;;;;;;12.52;8.90;;;11.10;99.90;;;;;;12487857;28;20516;-85
2021/10/10 18:37:25;;;;;;;13.90;8.95;;;11.10;99.90;;;;;;12480825;28;20640;-85
2021/10/10 18:43:27;;;;;;;11.68;8.55;;;11.00;99.90;;;;;;12471365;28;20398;-85
2021/10/10 18:49:29;;;;;;;15.32;9.55;;;10.90;99.90;;;;;;12471203;28;20053;-85
2021/10/10 18:55:31;;;;;;;12.50;8.90;;;10.80;99.90;;;;;;12477068;28;20802;-85
2021/10/10 19:01:33;;;;;;;13.32;9.00;;;10.90;99.90;;;;;;12487848;28;20111;-85
2021/10/10 19:07:36;;;;;;;12.95;8.32;;;10.80;99.90;;;;;;12491707;28;20045;-85
2021/10/10 19:13:39;;;;;;;13.80;9.00;;;10.70;99.90;;;;;;12478154;28;20111;-85
2021/10/10 19:19:41;;;;;;;15.38;9.52;;;10.50;99.90;;;;;;12488216;28;20041;-85
2021/10/10 19:25:44;;;;;;;15.73;9.70;;;10.20;99.90;;;;;;12483046;28;20049;-85
2021/10/10 19:31:46;;;;;;;17.33;10.07;;;10.30;99.90;;;;;;12485193;28;20068;-85
2021/10/10 19:37:48;;;;;;;17.15;9.80;;;10.40;99.90;;;;;;12479714;28;20053;-85
2021/10/10 19:43:50;;;;;;;16.83;9.85;;;10.30;99.90;;;;;;12491198;28;20045;-84
2021/10/10 19:49:53;;;;;;;17.42;9.80;;;10.30;99.90;;;;;;12478723;28;20083;-85
2021/10/10 19:55:55;;;;;;;19.35;11.05;;;10.20;99.90;;;;;;12482522;28;20896;-84
2021/10/10 20:01:57;;;;;;;17.25;10.88;;;10.10;99.90;;;;;;12477241;28;20049;-85
2021/10/10 20:08:00;;;;;;;19.38;11.77;;;10.00;99.90;;;;;;12477860;28;20174;-86
2021/10/10 20:14:02;;;;;;;20.90;12.15;;;9.90;99.90;;;;;;12469810;28;20463;-85
2021/10/10 20:20:05;;;;;;;19.10;13.60;;;9.80;99.90;;;;;;12477672;28;20084;-84
2021/10/10 20:26:07;;;;;;;19.55;13.73;;;9.70;99.90;;;;;;12495263;28;20054;-85
2021/10/10 20:32:08;;;;;;;21.95;14.32;;;9.70;99.90;;;;;;12484773;28;20550;-85
2021/10/10 20:38:10;;;;;;;20.95;14.23;;;9.60;99.90;;;;;;12478310;28;20046;-85
2021/10/10 20:44:14;;;;;;;23.38;15.10;;;9.70;99.90;;;;;;12479474;28;20045;-85
2021/10/10 20:50:15;;;;;;;22.20;14.85;;;9.80;99.90;;;;;;12473936;28;20057;-84
2021/10/10 20:56:18;;;;;;;25.23;16.88;;;9.80;99.90;;;;;;12483797;28;20756;-85
2021/10/10 21:02:20;;;;;;;23.83;16.80;;;9.70;99.90;;;;;;12474802;28;20045;-85
2021/10/10 21:08:22;;;;;;;28.10;17.45;;;9.80;99.90;;;;;;12483218;28;20137;-85
2021/10/10 21:14:24;;;;;;;22.52;16.50;;;9.80;99.90;;;;;;12478063;28;20045;-85
2021/10/10 21:20:26;;;;;;;24.77;17.30;;;9.70;99.90;;;;;;12489233;28;20136;-85
2021/10/10 21:26:28;;;;;;;25.38;17.15;;;9.80;99.90;;;;;;12488698;28;20442;-84
2021/10/10 21:38:32;;;;;;;26.77;17.80;;;9.70;99.90;;;;;;12500182;28;20161;-86
2021/10/10 21:44:35;;;;;;;30.25;20.52;;;9.50;99.90;;;;;;12511623;28;20045;-85
2021/10/10 21:50:38;;;;;;;37.85;23.60;;;9.20;99.90;;;;;;12487291;28;20037;-85
2021/10/10 21:56:40;;;;;;;34.05;23.13;;;9.00;99.90;;;;;;12489610;28;20094;-85
2021/10/10 22:02:41;;;;;;;44.60;25.00;;;9.20;99.90;;;;;;12480325;28;20170;-85
2021/10/10 22:08:43;;;;;;;38.95;24.25;;;9.20;99.90;;;;;;12487773;28;20068;-85
2021/10/10 22:14:45;;;;;;;33.60;22.85;;;9.40;99.90;;;;;;12496399;28;20076;-85
2021/10/10 22:20:52;;;;;;;35.97;23.02;;;9.60;99.90;;;;;;12477374;28;20565;-85
2021/10/10 22:32:59;;;;;;;29.05;21.35;;;9.80;99.90;;;;;;12491165;28;20045;-85
2021/10/10 22:39:01;;;;;;;36.78;23.48;;;9.60;99.90;;;;;;12491543;28;20513;-85
2021/10/10 22:45:03;;;;;;;38.28;24.73;;;9.50;99.90;;;;;;12487911;28;20119;-84
2021/10/10 22:51:06;;;;;;;39.60;25.40;;;9.30;99.90;;;;;;12490192;28;20048;-85
2021/10/10 22:57:08;;;;;;;32.90;22.95;;;9.10;99.90;;;;;;12485840;28;20049;-84
2021/10/10 23:03:09;;;;;;;34.22;23.30;;;9.30;99.90;;;;;;12512014;28;21137;-85
2021/10/10 23:09:11;;;;;;;30.45;19.60;;;9.50;99.90;;;;;;12489732;28;20111;-84
2021/10/10 23:15:13;;;;;;;28.40;17.52;;;9.40;99.90;;;;;;12484043;28;20053;-85
2021/10/10 23:21:15;;;;;;;24.38;16.60;;;9.30;99.90;;;;;;12479461;28;20106;-85
2021/10/10 23:27:17;;;;;;;24.35;15.80;;;9.20;99.90;;;;;;12476365;28;20508;-85
2021/10/10 23:33:19;;;;;;;23.08;15.15;;;9.20;99.90;;;;;;12476589;28;20499;-84
2021/10/10 23:39:20;;;;;;;24.83;16.67;;;9.10;99.90;;;;;;12482382;28;20102;-85
2021/10/10 23:45:22;;;;;;;29.13;18.83;;;9.10;99.90;;;;;;12488527;28;20046;-84
2021/10/10 23:51:24;;;;;;;26.38;19.40;;;9.10;99.90;;;;;;12477234;28;20107;-85
2021/10/10 23:57:26;;;;;;;46.10;28.92;;;8.80;99.90;;;;;;12477749;28;20080;-85
